createdAt,value
2023-03-30T00:00:18.798Z,49.37
2023-03-30T00:02:50.836Z,47.10
2023-03-30T00:05:18.794Z,48.00
2023-03-30T00:07:46.233Z,48.67
2023-03-30T00:10:14.694Z,49.90
2023-03-30T00:12:43.790Z,48.47
2023-03-30T00:15:12.405Z,47.57
2023-03-30T00:17:40.021Z,48.83
2023-03-30T00:20:12.587Z,49.53
2023-03-30T00:22:40.216Z,47.87
2023-03-30T00:25:08.775Z,48.27
2023-03-30T00:27:36.778Z,49.17
2023-03-30T00:30:04.878Z,51.07
2023-03-30T00:32:32.497Z,49.13
2023-03-30T00:34:59.680Z,49.40
2023-03-30T00:37:27.612Z,50.27
2023-03-30T00:39:54.771Z,51.53
2023-03-30T00:42:22.072Z,50.03
2023-03-30T00:45:08.211Z,52.97
2023-03-30T00:47:42.831Z,53.17
2023-03-30T00:50:12.602Z,56.50
2023-03-30T00:52:39.737Z,51.47
2023-03-30T00:55:07.866Z,57.73
2023-03-30T00:57:36.434Z,56.63
2023-03-30T01:00:06.928Z,53.07
2023-03-30T01:02:34.209Z,52.47
2023-03-30T01:05:01.406Z,46.37
2023-03-30T01:07:29.869Z,41.97
2023-03-30T01:09:57.407Z,40.73
2023-03-30T01:12:24.530Z,40.77
2023-03-30T01:14:51.940Z,44.00
2023-03-30T01:17:26.365Z,42.83
2023-03-30T01:20:13.191Z,43.47
2023-03-30T01:22:50.231Z,43.60
2023-03-30T01:25:34.179Z,43.30
2023-03-30T01:28:22.004Z,46.13
2023-03-30T01:31:15.996Z,49.37
2023-03-30T01:33:43.337Z,47.57
2023-03-30T01:36:28.665Z,64.90
2023-03-30T01:39:11.536Z,68.23
2023-03-30T01:41:42.324Z,67.47
2023-03-30T01:44:09.451Z,66.90
2023-03-30T01:46:41.072Z,63.37
2023-03-30T01:49:08.241Z,63.47
2023-03-30T01:51:36.677Z,57.40
2023-03-30T01:54:18.360Z,75.83
2023-03-30T01:56:48.254Z,73.53
2023-03-30T01:59:18.524Z,60.83
2023-03-30T02:01:50.277Z,56.10
2023-03-30T02:04:17.619Z,69.33
2023-03-30T02:06:48.578Z,71.97
2023-03-30T02:09:16.344Z,68.80
2023-03-30T02:11:44.704Z,68.80
2023-03-30T02:14:12.167Z,71.47
2023-03-30T02:16:42.774Z,61.67
2023-03-30T02:19:10.013Z,52.73
2023-03-30T02:21:37.211Z,45.30
2023-03-30T02:24:05.100Z,43.93
2023-03-30T02:26:32.531Z,36.23
2023-03-30T02:28:59.712Z,52.43
2023-03-30T02:31:26.871Z,50.40
2023-03-30T02:34:06.545Z,45.17
2023-03-30T02:36:52.441Z,38.23
2023-03-30T02:39:46.928Z,26.67
2023-03-30T02:42:27.145Z,16.73
2023-03-30T02:45:09.625Z,17.70
2023-03-30T02:47:39.493Z,19.00
2023-03-30T02:50:09.969Z,29.57
2023-03-30T02:53:06.675Z,29.17
2023-03-30T02:55:38.079Z,28.07
2023-03-30T02:58:14.669Z,25.40
2023-03-30T03:00:48.025Z,30.97
2023-03-30T03:03:17.417Z,33.00
2023-03-30T03:05:44.838Z,30.27
2023-03-30T03:08:14.687Z,31.50
2023-03-30T03:10:41.804Z,32.27
2023-03-30T03:13:09.995Z,27.23
2023-03-30T03:15:38.040Z,28.33
2023-03-30T03:18:06.105Z,31.83
2023-03-30T03:20:33.557Z,31.50
2023-03-30T03:23:00.916Z,28.60
2023-03-30T03:25:28.056Z,27.63
2023-03-30T03:27:55.198Z,28.50
2023-03-30T03:30:22.365Z,28.87
2023-03-30T03:32:49.980Z,31.87
2023-03-30T03:35:17.259Z,32.20
2023-03-30T03:37:44.442Z,33.30
2023-03-30T03:40:11.691Z,34.23
2023-03-30T03:42:38.897Z,32.90
2023-03-30T03:45:06.422Z,36.07
2023-03-30T03:47:33.858Z,32.63
2023-03-30T03:50:06.931Z,32.73
2023-03-30T03:52:34.103Z,30.60
2023-03-30T03:55:01.267Z,31.57
2023-03-30T03:57:28.504Z,32.07
2023-03-30T03:59:59.605Z,27.43
2023-03-30T04:02:27.680Z,26.67
2023-03-30T04:04:55.753Z,25.57
2023-03-30T04:07:25.537Z,22.80
2023-03-30T04:09:52.749Z,25.37
2023-03-30T04:12:20.602Z,27.17
2023-03-30T04:14:47.756Z,24.60
2023-03-30T04:17:15.120Z,24.53
2023-03-30T04:19:42.330Z,21.73
2023-03-30T04:22:09.631Z,20.27
2023-03-30T04:24:36.755Z,23.00
2023-03-30T04:27:03.988Z,24.77
2023-03-30T04:29:31.176Z,25.47
2023-03-30T04:32:02.757Z,22.00
2023-03-30T04:34:31.059Z,21.80
2023-03-30T04:36:58.472Z,22.03
2023-03-30T04:39:30.221Z,19.97
2023-03-30T04:41:57.800Z,20.97
2023-03-30T04:44:24.974Z,21.13
2023-03-30T04:46:52.150Z,21.33
2023-03-30T04:49:19.880Z,20.23
2023-03-30T04:51:47.082Z,21.23
2023-03-30T04:54:14.319Z,20.67
2023-03-30T04:56:41.611Z,24.63
2023-03-30T04:59:08.848Z,20.13
2023-03-30T05:01:36.064Z,25.57
2023-03-30T05:04:03.233Z,31.30
2023-03-30T05:06:30.866Z,33.53
2023-03-30T05:08:58.075Z,37.57
2023-03-30T05:11:25.283Z,44.43
2023-03-30T05:13:52.871Z,46.50
2023-03-30T05:16:20.142Z,47.77
2023-03-30T05:18:49.442Z,51.80
2023-03-30T05:21:18.572Z,58.50
2023-03-30T05:23:45.748Z,58.03
2023-03-30T05:26:12.933Z,45.67
2023-03-30T05:28:40.423Z,26.80
2023-03-30T05:31:07.930Z,26.77
2023-03-30T05:33:35.617Z,21.17
2023-03-30T05:36:02.823Z,21.73
2023-03-30T05:38:30.002Z,24.00
2023-03-30T05:40:57.268Z,19.87
2023-03-30T05:43:24.452Z,18.83
2023-03-30T05:45:51.614Z,21.33
2023-03-30T05:48:18.853Z,24.97
2023-03-30T05:50:48.087Z,26.77
2023-03-30T05:53:15.525Z,34.57
2023-03-30T05:55:46.844Z,34.57
2023-03-30T05:58:14.213Z,37.77
2023-03-30T06:00:41.956Z,42.83
2023-03-30T06:03:09.810Z,42.17
2023-03-30T06:05:39.019Z,45.60
2023-03-30T06:08:08.130Z,47.83
2023-03-30T06:10:35.680Z,43.63
2023-03-30T06:13:02.907Z,38.77
2023-03-30T06:15:30.066Z,31.63
2023-03-30T06:17:59.247Z,26.23
2023-03-30T06:20:26.514Z,22.53
2023-03-30T06:22:53.732Z,30.17
2023-03-30T06:25:21.126Z,34.30
2023-03-30T06:27:48.277Z,42.17
2023-03-30T06:30:16.076Z,37.07
2023-03-30T06:32:43.543Z,39.17
2023-03-30T06:35:10.713Z,42.77
2023-03-30T06:37:38.044Z,39.60
2023-03-30T06:40:12.597Z,37.37
2023-03-30T06:42:44.360Z,44.00
2023-03-30T06:45:12.071Z,43.57
2023-03-30T06:47:39.389Z,37.47
2023-03-30T06:50:06.958Z,37.07
2023-03-30T06:52:37.620Z,50.83
2023-03-30T06:55:05.251Z,63.60
2023-03-30T06:57:32.522Z,67.83
2023-03-30T06:59:59.755Z,70.17
2023-03-30T07:02:27.478Z,49.67
2023-03-30T07:04:54.803Z,46.60
2023-03-30T07:07:22.252Z,47.43
2023-03-30T07:09:49.488Z,43.33
2023-03-30T07:12:16.659Z,47.37
2023-03-30T07:14:43.835Z,49.70
2023-03-30T07:17:11.573Z,30.30
2023-03-30T07:19:38.831Z,35.63
2023-03-30T07:22:06.010Z,25.17
2023-03-30T07:24:33.800Z,17.30
2023-03-30T07:27:01.140Z,41.10
2023-03-30T07:29:29.272Z,18.90
2023-03-30T07:31:56.802Z,13.73
2023-03-30T07:34:24.100Z,7.87
2023-03-30T07:36:51.223Z,5.93
2023-03-30T07:39:18.647Z,5.32
2023-03-30T07:41:45.844Z,5.47
2023-03-30T07:44:13.072Z,5.53
2023-03-30T07:46:41.227Z,6.05
2023-03-30T07:49:08.552Z,6.00
2023-03-30T07:51:35.674Z,6.93
2023-03-30T07:54:02.854Z,6.00
2023-03-30T07:56:30.265Z,6.65
2023-03-30T07:58:58.498Z,5.53
2023-03-30T08:01:27.924Z,6.55
2023-03-30T08:03:55.568Z,6.25
2023-03-30T08:06:23.359Z,5.75
2023-03-30T08:08:50.911Z,5.05
2023-03-30T08:11:18.150Z,5.72
2023-03-30T08:13:45.334Z,5.57
2023-03-30T08:16:12.692Z,5.32
2023-03-30T08:18:42.737Z,5.78
2023-03-30T08:21:11.065Z,4.63
2023-03-30T08:23:38.274Z,3.78
2023-03-30T08:26:06.216Z,3.92
2023-03-30T08:28:34.119Z,3.80
2023-03-30T08:31:05.891Z,3.38
2023-03-30T08:33:33.620Z,3.47
2023-03-30T08:36:00.777Z,3.92
2023-03-30T08:38:27.966Z,3.08
2023-03-30T08:40:55.546Z,2.30
2023-03-30T08:43:38.132Z,2.13
2023-03-30T08:46:05.556Z,2.72
2023-03-30T08:48:34.007Z,3.00
2023-03-30T08:51:16.500Z,2.22
2023-03-30T08:53:43.669Z,2.35
2023-03-30T08:56:11.017Z,2.88
2023-03-30T08:58:41.490Z,2.55
2023-03-30T09:01:25.237Z,2.08
2023-03-30T09:03:52.449Z,2.90
2023-03-30T09:06:19.694Z,6.82
2023-03-30T09:08:47.001Z,2.53
2023-03-30T09:11:15.436Z,1.58
2023-03-30T09:13:45.315Z,1.95
2023-03-30T09:16:22.565Z,4.53
2023-03-30T09:18:53.804Z,2.40
2023-03-30T09:21:22.440Z,4.60
2023-03-30T09:23:49.576Z,2.33
2023-03-30T09:26:16.699Z,1.98
2023-03-30T09:28:56.246Z,3.03
2023-03-30T09:31:36.132Z,3.38
2023-03-30T09:34:04.913Z,2.45
2023-03-30T09:37:09.044Z,2.45
2023-03-30T09:39:36.469Z,4.03
2023-03-30T09:42:06.610Z,1.90
2023-03-30T09:44:42.070Z,2.20
2023-03-30T09:47:27.812Z,2.20
2023-03-30T09:49:58.845Z,2.58
2023-03-30T09:52:27.048Z,2.47
2023-03-30T09:54:54.296Z,3.47
2023-03-30T09:57:25.789Z,1.60
2023-03-30T09:59:55.879Z,1.98
2023-03-30T10:02:23.815Z,1.50
2023-03-30T10:04:54.226Z,1.70
2023-03-30T10:07:24.792Z,1.65
2023-03-30T10:09:52.362Z,1.50
2023-03-30T10:12:19.632Z,1.88
2023-03-30T10:14:46.754Z,1.50
2023-03-30T10:17:24.743Z,2.20
2023-03-30T10:20:07.315Z,1.80
2023-03-30T10:22:49.177Z,2.00
2023-03-30T10:25:19.151Z,2.33
2023-03-30T10:27:46.311Z,2.97
2023-03-30T10:30:18.473Z,2.88
2023-03-30T10:32:46.926Z,2.20
2023-03-30T10:35:15.279Z,2.20
2023-03-30T10:37:43.794Z,1.75
2023-03-30T10:40:17.530Z,1.50
2023-03-30T10:42:44.837Z,1.60
2023-03-30T10:45:16.923Z,1.70
2023-03-30T10:48:05.489Z,2.03
2023-03-30T10:50:47.736Z,2.08
2023-03-30T10:53:30.484Z,2.40
2023-03-30T10:56:07.017Z,2.10
2023-03-30T10:58:49.575Z,2.25
2023-03-30T11:01:16.906Z,1.92
2023-03-30T11:03:45.751Z,1.77
2023-03-30T11:06:23.255Z,2.20
2023-03-30T11:08:51.334Z,1.50
2023-03-30T11:11:27.292Z,1.65
2023-03-30T11:14:01.939Z,1.73
2023-03-30T11:16:37.135Z,2.03
2023-03-30T11:19:05.915Z,2.85
2023-03-30T11:21:51.842Z,2.00
2023-03-30T11:24:20.806Z,2.40
2023-03-30T11:26:59.928Z,1.30
2023-03-30T11:29:42.939Z,1.90
2023-03-30T11:32:30.401Z,1.50
2023-03-30T11:35:07.220Z,1.92
2023-03-30T11:37:43.516Z,1.63
2023-03-30T11:40:15.406Z,1.83
2023-03-30T11:42:43.157Z,1.20
2023-03-30T11:45:22.053Z,1.50
2023-03-30T11:47:52.628Z,1.13
2023-03-30T11:50:24.047Z,1.40
2023-03-30T11:52:57.949Z,1.63
2023-03-30T11:55:25.147Z,1.60
2023-03-30T11:58:06.199Z,1.58
2023-03-30T12:00:34.575Z,1.60
2023-03-30T12:03:20.250Z,1.50
2023-03-30T12:05:48.755Z,1.92
2023-03-30T12:08:34.688Z,1.40
2023-03-30T12:11:28.299Z,1.80
2023-03-30T12:13:55.507Z,1.30
2023-03-30T12:16:28.133Z,2.20
2023-03-30T12:18:55.915Z,1.80
2023-03-30T12:21:29.258Z,2.08
2023-03-30T12:24:01.107Z,1.63
2023-03-30T12:26:31.537Z,1.95
2023-03-30T12:29:40.518Z,1.60
2023-03-30T12:31:50.216Z,2.03
2023-03-30T12:34:17.505Z,2.28
2023-03-30T12:37:05.156Z,1.85
2023-03-30T12:39:36.972Z,1.60
2023-03-30T12:42:08.231Z,2.28
2023-03-30T12:44:36.494Z,3.05
2023-03-30T12:47:12.144Z,2.72
2023-03-30T12:49:48.776Z,2.15
2023-03-30T12:52:16.050Z,1.90
2023-03-30T12:54:46.267Z,2.08
2023-03-30T12:57:32.393Z,2.65
2023-03-30T13:00:02.767Z,2.65
2023-03-30T13:02:29.924Z,2.28
2023-03-30T13:04:58.210Z,3.30
2023-03-30T13:07:26.047Z,2.60
2023-03-30T13:09:57.742Z,3.38
2023-03-30T13:12:27.773Z,2.40
2023-03-30T13:15:06.081Z,2.10
2023-03-30T13:17:52.044Z,1.92
2023-03-30T13:20:30.137Z,2.00
2023-03-30T13:23:01.091Z,7.18
2023-03-30T13:25:38.950Z,4.68
2023-03-30T13:28:24.805Z,2.30
2023-03-30T13:30:51.985Z,3.10
2023-03-30T13:33:19.935Z,3.70
2023-03-30T13:35:59.543Z,3.15
2023-03-30T13:38:36.004Z,4.22
2023-03-30T13:41:06.200Z,3.95
2023-03-30T13:43:48.423Z,4.70
2023-03-30T13:46:20.238Z,4.70
2023-03-30T13:48:53.387Z,4.95
2023-03-30T13:51:21.547Z,2.80
2023-03-30T13:53:50.063Z,3.60
2023-03-30T13:56:17.195Z,3.40
2023-03-30T13:58:46.908Z,2.83
2023-03-30T14:01:14.263Z,3.80
2023-03-30T14:03:44.875Z,2.50
2023-03-30T14:06:15.269Z,2.45
2023-03-30T14:08:44.985Z,3.10
2023-03-30T14:11:22.145Z,3.65
2023-03-30T14:13:50.690Z,2.92
2023-03-30T14:16:19.630Z,5.50
2023-03-30T14:18:46.840Z,3.33
2023-03-30T14:21:16.046Z,3.30
2023-03-30T14:23:48.466Z,4.22
2023-03-30T14:26:16.641Z,4.55
2023-03-30T14:28:44.148Z,4.10
2023-03-30T14:31:18.733Z,6.22
2023-03-30T14:33:46.135Z,11.98
2023-03-30T14:36:16.840Z,4.20
2023-03-30T14:38:47.966Z,7.50
2023-03-30T14:41:16.880Z,7.63
2023-03-30T14:43:44.871Z,4.50
2023-03-30T14:46:12.519Z,7.38
2023-03-30T14:48:41.598Z,3.83
2023-03-30T14:51:20.480Z,6.05
2023-03-30T14:53:47.781Z,5.13
2023-03-30T14:56:14.973Z,4.28
2023-03-30T14:58:42.143Z,3.50
2023-03-30T15:01:10.041Z,4.18
2023-03-30T15:03:37.663Z,3.10
2023-03-30T15:06:05.923Z,3.00
2023-03-30T15:08:33.810Z,3.03
2023-03-30T15:11:13.650Z,4.57
2023-03-30T15:13:41.775Z,8.48
2023-03-30T15:16:09.018Z,3.33
2023-03-30T15:18:36.190Z,9.45
2023-03-30T15:21:03.526Z,3.90
2023-03-30T15:23:41.074Z,4.00
2023-03-30T15:26:08.671Z,6.47
2023-03-30T15:29:02.220Z,5.38
2023-03-30T15:31:29.477Z,5.22
2023-03-30T15:34:01.034Z,5.22
2023-03-30T15:36:34.299Z,4.30
2023-03-30T15:39:01.526Z,4.32
2023-03-30T15:41:45.231Z,4.57
2023-03-30T15:44:12.934Z,6.53
2023-03-30T15:46:40.909Z,5.05
2023-03-30T15:49:08.328Z,3.40
2023-03-30T15:51:45.294Z,3.35
2023-03-30T15:54:13.771Z,3.42
2023-03-30T15:56:53.267Z,3.83
2023-03-30T15:59:21.409Z,6.90
2023-03-30T16:01:49.633Z,5.45
2023-03-30T16:04:18.416Z,5.85
2023-03-30T16:06:47.468Z,7.13
2023-03-30T16:09:15.054Z,8.35
2023-03-30T16:11:42.249Z,8.45
2023-03-30T16:14:11.634Z,6.00
2023-03-30T16:16:38.840Z,5.03
2023-03-30T16:19:10.492Z,5.35
2023-03-30T16:21:38.003Z,7.03
2023-03-30T16:24:06.015Z,8.45
2023-03-30T16:26:33.223Z,7.97
2023-03-30T16:29:00.543Z,6.68
2023-03-30T16:31:27.735Z,6.75
2023-03-30T16:33:54.891Z,6.28
2023-03-30T16:36:22.575Z,5.97
2023-03-30T16:38:49.756Z,5.55
2023-03-30T16:41:18.075Z,5.93
2023-03-30T16:43:45.339Z,5.20
2023-03-30T16:46:18.977Z,4.80
2023-03-30T16:48:46.571Z,4.88
2023-03-30T16:51:14.005Z,5.20
2023-03-30T16:53:41.531Z,5.10
2023-03-30T16:56:18.236Z,6.10
2023-03-30T16:58:45.928Z,4.47
2023-03-30T17:01:13.506Z,4.88
2023-03-30T17:03:40.722Z,4.82
2023-03-30T17:06:08.237Z,5.00
2023-03-30T17:08:35.581Z,4.95
2023-03-30T17:11:07.875Z,5.28
2023-03-30T17:13:35.210Z,5.05
2023-03-30T17:16:02.926Z,5.88
2023-03-30T17:18:30.332Z,5.00
2023-03-30T17:20:58.003Z,9.10
2023-03-30T17:23:25.989Z,10.98
2023-03-30T17:25:53.969Z,16.85
2023-03-30T17:28:21.812Z,15.52
2023-03-30T17:30:49.216Z,34.22
2023-03-30T17:33:16.433Z,28.63
2023-03-30T17:35:45.452Z,29.02
2023-03-30T17:38:12.651Z,42.00
2023-03-30T17:40:39.896Z,92.05
2023-03-30T17:43:07.556Z,39.70
2023-03-30T17:45:34.914Z,27.75
2023-03-30T17:48:02.804Z,19.58
2023-03-30T17:50:31.034Z,22.23
2023-03-30T17:52:58.351Z,22.42
2023-03-30T17:55:26.524Z,31.17
2023-03-30T17:57:53.688Z,39.22
2023-03-30T18:00:23.902Z,41.75
2023-03-30T18:02:51.611Z,38.50
2023-03-30T18:05:19.187Z,31.63
2023-03-30T18:07:46.407Z,39.28
2023-03-30T18:10:17.251Z,43.55
2023-03-30T18:12:44.459Z,38.92
2023-03-30T18:15:11.897Z,60.55
2023-03-30T18:17:39.162Z,94.80
2023-03-30T18:20:25.867Z,70.28
2023-03-30T18:22:53.126Z,33.17
2023-03-30T18:25:31.320Z,23.23
2023-03-30T18:27:59.116Z,11.25
2023-03-30T18:30:26.270Z,11.18
2023-03-30T18:32:53.507Z,12.43
2023-03-30T18:35:20.806Z,13.60
2023-03-30T18:37:48.141Z,14.02
2023-03-30T18:40:38.410Z,14.65
2023-03-30T18:43:05.923Z,21.67
2023-03-30T18:45:37.641Z,21.08
2023-03-30T18:48:05.586Z,17.85
2023-03-30T18:50:34.865Z,19.77
2023-03-30T18:53:02.539Z,19.13
2023-03-30T18:55:30.552Z,18.52
2023-03-30T18:57:59.353Z,15.60
2023-03-30T19:00:27.436Z,16.38
2023-03-30T19:02:54.980Z,18.52
2023-03-30T19:05:22.347Z,13.88
2023-03-30T19:07:49.583Z,12.07
2023-03-30T19:10:17.828Z,14.40
2023-03-30T19:12:45.046Z,14.95
2023-03-30T19:15:16.946Z,17.02
2023-03-30T19:17:44.172Z,11.43
2023-03-30T19:20:11.763Z,27.90
2023-03-30T19:22:38.892Z,13.10
2023-03-30T19:25:06.353Z,14.90
2023-03-30T19:27:33.477Z,12.88
2023-03-30T19:30:00.689Z,12.18
2023-03-30T19:32:28.186Z,11.07
2023-03-30T19:34:56.193Z,8.68
2023-03-30T19:37:23.512Z,9.38
2023-03-30T19:39:50.812Z,8.55
2023-03-30T19:42:18.002Z,9.10
2023-03-30T19:44:45.296Z,9.55
2023-03-30T19:47:12.502Z,11.10
2023-03-30T19:49:39.770Z,10.52
2023-03-30T19:52:07.876Z,11.38
2023-03-30T19:54:35.224Z,11.07
2023-03-30T19:57:02.476Z,9.48
2023-03-30T19:59:29.650Z,8.48
2023-03-30T20:01:56.857Z,8.50
2023-03-30T20:04:24.045Z,8.63
2023-03-30T20:06:51.737Z,8.60
2023-03-30T20:09:19.835Z,8.10
2023-03-30T20:11:47.219Z,8.75
2023-03-30T20:14:14.476Z,9.13
2023-03-30T20:16:41.779Z,12.82
2023-03-30T20:19:22.476Z,11.02
2023-03-30T20:21:56.565Z,9.30
2023-03-30T20:24:23.890Z,8.73
2023-03-30T20:26:51.141Z,8.65
2023-03-30T20:29:18.320Z,9.15
2023-03-30T20:31:46.294Z,8.00
2023-03-30T20:34:15.332Z,7.10
2023-03-30T20:36:42.884Z,7.53
2023-03-30T20:39:10.068Z,7.85
2023-03-30T20:41:40.079Z,7.47
2023-03-30T20:44:13.881Z,6.50
2023-03-30T20:46:43.310Z,7.70
2023-03-30T20:49:10.857Z,6.85
2023-03-30T20:51:39.952Z,7.30
2023-03-30T20:54:07.420Z,5.50
2023-03-30T20:56:34.551Z,6.15
2023-03-30T20:59:02.314Z,5.82
2023-03-30T21:01:30.167Z,6.82
2023-03-30T21:04:00.748Z,8.20
2023-03-30T21:06:28.608Z,14.05
2023-03-30T21:08:56.577Z,10.40
2023-03-30T21:11:24.351Z,12.30
2023-03-30T21:13:51.589Z,10.68
2023-03-30T21:16:18.962Z,7.13
2023-03-30T21:18:46.168Z,7.20
2023-03-30T21:21:13.340Z,8.30
2023-03-30T21:23:41.454Z,8.20
2023-03-30T21:26:09.202Z,7.15
2023-03-30T21:28:36.431Z,7.28
2023-03-30T21:31:05.642Z,7.32
2023-03-30T21:33:33.215Z,7.18
2023-03-30T21:36:00.677Z,6.68
2023-03-30T21:38:28.302Z,7.03
2023-03-30T21:41:08.548Z,7.18
2023-03-30T21:43:36.442Z,7.68
2023-03-30T21:46:05.036Z,8.25
2023-03-30T21:48:32.923Z,7.38
2023-03-30T21:51:00.895Z,6.75
2023-03-30T21:53:28.333Z,7.38
2023-03-30T21:55:55.510Z,6.85
2023-03-30T21:58:23.000Z,7.57
2023-03-30T22:00:58.389Z,6.95
2023-03-30T22:03:36.144Z,6.32
2023-03-30T22:06:04.797Z,7.00
2023-03-30T22:08:32.087Z,6.63
2023-03-30T22:11:00.270Z,6.97
2023-03-30T22:13:27.593Z,6.65
2023-03-30T22:15:58.835Z,7.38
2023-03-30T22:18:26.132Z,7.70
2023-03-30T22:20:53.293Z,7.13
2023-03-30T22:23:20.472Z,6.93
2023-03-30T22:25:47.722Z,6.90
2023-03-30T22:28:14.893Z,7.05
2023-03-30T22:30:42.819Z,7.35
2023-03-30T22:33:11.382Z,6.80
2023-03-30T22:35:42.226Z,7.07
2023-03-30T22:38:09.475Z,5.85
2023-03-30T22:40:36.780Z,7.10
2023-03-30T22:43:04.226Z,6.05
2023-03-30T22:45:31.606Z,7.07
2023-03-30T22:47:59.037Z,6.63
2023-03-30T22:50:27.526Z,6.65
2023-03-30T22:52:55.172Z,6.90
2023-03-30T22:55:22.436Z,7.47
2023-03-30T22:57:49.940Z,6.88
2023-03-30T23:00:17.922Z,6.93
2023-03-30T23:02:45.207Z,6.38
2023-03-30T23:05:14.989Z,5.63
2023-03-30T23:07:44.220Z,6.50
2023-03-30T23:10:13.588Z,5.50
2023-03-30T23:12:41.142Z,5.63
2023-03-30T23:15:08.889Z,5.82
2023-03-30T23:17:36.676Z,5.78
2023-03-30T23:20:05.468Z,5.57
2023-03-30T23:22:32.643Z,5.80
2023-03-30T23:24:59.827Z,6.40
2023-03-30T23:27:27.023Z,5.30
2023-03-30T23:29:54.200Z,5.55
2023-03-30T23:32:21.382Z,4.78
2023-03-30T23:34:48.543Z,5.50
2023-03-30T23:37:15.734Z,5.43
2023-03-30T23:39:42.900Z,5.50
2023-03-30T23:42:10.130Z,5.00
2023-03-30T23:44:37.270Z,6.35
2023-03-30T23:47:04.416Z,5.82
2023-03-30T23:49:31.658Z,5.80
2023-03-30T23:51:58.824Z,5.80
2023-03-30T23:54:25.995Z,6.18
2023-03-30T23:56:57.641Z,5.60
2023-03-30T23:59:25.368Z,6.78
